In Rescue
 
Open Full Screen Window  High Contrast Mode
Wind Gusting 00 knots
03
November 25, 2020 4:15 AM CST
Present Weather: Light Snow
Weather Information
Wind Direction
  280 °
Wind Speed
  03 kt (3 mph)
Wind Gust
  00 kt (0 mph)
Altimeter
29.84 in
Visibility
2 1/2 SM
Temperature
-02° C
28° F
Dewpoint
-03° C
27° F
Humidity
93%
1hr Rain Fall
00.00 in.
24hr Rain Fall
00.00 in.
Sky Condition
Missing
IFR

METAR KCKC 251015Z AUTO 28003KT 2 1/2SM -SN M02/M03 A2984 RMK AO2 VIS 1 1/2V4

FAA Disclaimer: The data displayed is for advisory purposes only and is not to be used for flight planning or operations.
Missing Cloud Data